sensor_id;sensor_type;location;lat;lon;timestamp;pressure;altitude;pressure_sealevel;temperature;humidity
53960;BME280;39866;48.638;-2.020;2024-01-07T00:00:01;101922.91;;;11.00;100.00
53960;BME280;39866;48.638;-2.020;2024-01-07T00:02:26;101930.84;;;11.06;100.00
53960;BME280;39866;48.638;-2.020;2024-01-07T00:04:52;101931.94;;;10.90;100.00
53960;BME280;39866;48.638;-2.020;2024-01-07T00:07:17;101931.03;;;10.89;100.00
53960;BME280;39866;48.638;-2.020;2024-01-07T00:09:42;101940.59;;;11.07;100.00
53960;BME280;39866;48.638;-2.020;2024-01-07T00:12:08;101937.88;;;11.12;100.00
53960;BME280;39866;48.638;-2.020;2024-01-07T00:14:33;101937.16;;;10.99;100.00
53960;BME280;39866;48.638;-2.020;2024-01-07T00:16:58;101945.13;;;10.98;100.00
53960;BME280;39866;48.638;-2.020;2024-01-07T00:19:23;101941.66;;;10.89;100.00
53960;BME280;39866;48.638;-2.020;2024-01-07T00:21:49;101939.81;;;10.98;100.00
53960;BME280;39866;48.638;-2.020;2024-01-07T00:24:15;101950.31;;;11.10;100.00
53960;BME280;39866;48.638;-2.020;2024-01-07T00:26:40;101950.25;;;11.19;100.00
53960;BME280;39866;48.638;-2.020;2024-01-07T00:29:05;101957.72;;;11.60;100.00
53960;BME280;39866;48.638;-2.020;2024-01-07T00:31:31;101956.31;;;11.30;100.00
53960;BME280;39866;48.638;-2.020;2024-01-07T00:33:56;101963.03;;;10.86;100.00
53960;BME280;39866;48.638;-2.020;2024-01-07T00:36:21;101951.59;;;10.77;100.00
53960;BME280;39866;48.638;-2.020;2024-01-07T00:38:47;101952.47;;;10.77;100.00
53960;BME280;39866;48.638;-2.020;2024-01-07T00:41:12;101952.59;;;10.65;100.00
53960;BME280;39866;48.638;-2.020;2024-01-07T00:43:37;101951.72;;;10.66;100.00
53960;BME280;39866;48.638;-2.020;2024-01-07T00:46:03;101958.31;;;11.11;100.00
53960;BME280;39866;48.638;-2.020;2024-01-07T00:48:29;101951.97;;;11.23;100.00
53960;BME280;39866;48.638;-2.020;2024-01-07T00:50:54;101955.84;;;11.65;100.00
53960;BME280;39866;48.638;-2.020;2024-01-07T00:53:20;101961.00;;;11.81;100.00
53960;BME280;39866;48.638;-2.020;2024-01-07T00:55:45;101956.53;;;11.81;100.00
53960;BME280;39866;48.638;-2.020;2024-01-07T00:58:11;101954.88;;;11.71;100.00
53960;BME280;39866;48.638;-2.020;2024-01-07T01:00:36;101954.47;;;11.37;100.00
53960;BME280;39866;48.638;-2.020;2024-01-07T01:03:01;101964.19;;;11.41;100.00
53960;BME280;39866;48.638;-2.020;2024-01-07T01:05:27;101953.56;;;11.39;100.00
53960;BME280;39866;48.638;-2.020;2024-01-07T01:07:52;101958.22;;;11.21;100.00
53960;BME280;39866;48.638;-2.020;2024-01-07T01:10:17;101967.03;;;11.27;100.00
53960;BME280;39866;48.638;-2.020;2024-01-07T01:12:44;101961.44;;;11.46;100.00
53960;BME280;39866;48.638;-2.020;2024-01-07T01:15:09;101968.81;;;11.25;100.00
53960;BME280;39866;48.638;-2.020;2024-01-07T01:17:35;101958.63;;;10.84;100.00
53960;BME280;39866;48.638;-2.020;2024-01-07T01:20:01;101964.09;;;10.69;100.00
53960;BME280;39866;48.638;-2.020;2024-01-07T01:22:26;101954.38;;;10.66;100.00
53960;BME280;39866;48.638;-2.020;2024-01-07T01:24:52;101966.69;;;10.76;100.00
53960;BME280;39866;48.638;-2.020;2024-01-07T01:27:18;101959.78;;;10.58;100.00
53960;BME280;39866;48.638;-2.020;2024-01-07T01:29:44;101974.81;;;10.62;100.00
53960;BME280;39866;48.638;-2.020;2024-01-07T01:32:09;101961.69;;;10.41;100.00
53960;BME280;39866;48.638;-2.020;2024-01-07T01:34:35;101961.69;;;10.39;100.00
53960;BME280;39866;48.638;-2.020;2024-01-07T01:37:00;101956.16;;;10.64;100.00
53960;BME280;39866;48.638;-2.020;2024-01-07T01:39:26;101962.06;;;10.94;100.00
53960;BME280;39866;48.638;-2.020;2024-01-07T01:41:51;101959.59;;;10.78;100.00
53960;BME280;39866;48.638;-2.020;2024-01-07T01:44:16;101965.66;;;10.89;100.00
53960;BME280;39866;48.638;-2.020;2024-01-07T01:46:44;101975.81;;;10.51;100.00
53960;BME280;39866;48.638;-2.020;2024-01-07T01:49:10;101977.50;;;10.62;100.00
53960;BME280;39866;48.638;-2.020;2024-01-07T01:51:35;101972.16;;;10.61;100.00
53960;BME280;39866;48.638;-2.020;2024-01-07T01:54:01;101981.88;;;10.66;100.00
53960;BME280;39866;48.638;-2.020;2024-01-07T01:56:28;101982.56;;;10.87;100.00
53960;BME280;39866;48.638;-2.020;2024-01-07T01:58:55;101976.53;;;10.70;100.00
53960;BME280;39866;48.638;-2.020;2024-01-07T02:01:21;101988.25;;;10.49;100.00
53960;BME280;39866;48.638;-2.020;2024-01-07T02:03:48;102000.94;;;10.07;100.00
53960;BME280;39866;48.638;-2.020;2024-01-07T02:06:13;102001.00;;;9.98;100.00
53960;BME280;39866;48.638;-2.020;2024-01-07T02:08:40;101999.19;;;10.03;100.00
53960;BME280;39866;48.638;-2.020;2024-01-07T02:11:35;102001.66;;;10.36;100.00
53960;BME280;39866;48.638;-2.020;2024-01-07T02:14:00;101996.34;;;10.38;100.00
53960;BME280;39866;48.638;-2.020;2024-01-07T02:16:25;102003.22;;;10.60;100.00
53960;BME280;39866;48.638;-2.020;2024-01-07T02:18:51;101996.66;;;11.00;100.00
53960;BME280;39866;48.638;-2.020;2024-01-07T02:21:16;101997.56;;;10.97;100.00
53960;BME280;39866;48.638;-2.020;2024-01-07T02:23:41;102001.34;;;10.75;100.00
53960;BME280;39866;48.638;-2.020;2024-01-07T02:26:07;102005.78;;;10.76;100.00
53960;BME280;39866;48.638;-2.020;2024-01-07T02:28:33;101998.78;;;10.61;100.00
53960;BME280;39866;48.638;-2.020;2024-01-07T02:30:59;102012.16;;;10.58;100.00
53960;BME280;39866;48.638;-2.020;2024-01-07T02:33:24;102006.84;;;10.55;100.00
53960;BME280;39866;48.638;-2.020;2024-01-07T02:35:50;102012.97;;;10.64;100.00
53960;BME280;39866;48.638;-2.020;2024-01-07T02:38:15;102014.06;;;10.39;100.00
53960;BME280;39866;48.638;-2.020;2024-01-07T02:40:41;102008.69;;;10.47;100.00
53960;BME280;39866;48.638;-2.020;2024-01-07T02:43:06;102010.53;;;10.38;100.00
53960;BME280;39866;48.638;-2.020;2024-01-07T02:45:31;102011.47;;;10.24;100.00
53960;BME280;39866;48.638;-2.020;2024-01-07T02:47:56;102017.44;;;10.62;100.00
53960;BME280;39866;48.638;-2.020;2024-01-07T02:50:22;102029.97;;;10.48;100.00
53960;BME280;39866;48.638;-2.020;2024-01-07T02:52:47;102023.75;;;10.51;100.00
53960;BME280;39866;48.638;-2.020;2024-01-07T02:55:13;102021.22;;;10.34;100.00
53960;BME280;39866;48.638;-2.020;2024-01-07T02:57:39;102019.09;;;10.76;100.00
53960;BME280;39866;48.638;-2.020;2024-01-07T03:00:04;102032.59;;;10.53;100.00
53960;BME280;39866;48.638;-2.020;2024-01-07T03:02:30;102022.66;;;10.73;100.00
53960;BME280;39866;48.638;-2.020;2024-01-07T03:04:56;102035.41;;;10.31;100.00
53960;BME280;39866;48.638;-2.020;2024-01-07T03:07:21;102030.91;;;10.39;100.00
53960;BME280;39866;48.638;-2.020;2024-01-07T03:09:48;102014.97;;;10.38;100.00
53960;BME280;39866;48.638;-2.020;2024-01-07T03:12:15;102014.88;;;10.50;100.00
53960;BME280;39866;48.638;-2.020;2024-01-07T03:14:40;102018.34;;;10.58;100.00
53960;BME280;39866;48.638;-2.020;2024-01-07T03:17:06;102016.66;;;10.48;100.00
53960;BME280;39866;48.638;-2.020;2024-01-07T03:19:31;102022.13;;;10.33;100.00
53960;BME280;39866;48.638;-2.020;2024-01-07T03:21:56;102026.34;;;10.58;100.00
53960;BME280;39866;48.638;-2.020;2024-01-07T03:24:23;102016.56;;;10.62;100.00
53960;BME280;39866;48.638;-2.020;2024-01-07T03:26:48;102020.22;;;10.44;100.00
53960;BME280;39866;48.638;-2.020;2024-01-07T03:29:13;102040.50;;;10.63;100.00
53960;BME280;39866;48.638;-2.020;2024-01-07T03:31:38;102039.75;;;10.45;100.00
53960;BME280;39866;48.638;-2.020;2024-01-07T03:34:04;102032.63;;;10.48;100.00
53960;BME280;39866;48.638;-2.020;2024-01-07T03:36:29;102035.19;;;10.62;100.00
53960;BME280;39866;48.638;-2.020;2024-01-07T03:38:54;102049.28;;;10.73;100.00
53960;BME280;39866;48.638;-2.020;2024-01-07T03:41:20;102024.63;;;10.48;100.00
53960;BME280;39866;48.638;-2.020;2024-01-07T03:43:47;102031.66;;;10.60;100.00
53960;BME280;39866;48.638;-2.020;2024-01-07T03:46:13;102030.66;;;10.72;100.00
53960;BME280;39866;48.638;-2.020;2024-01-07T03:48:38;102035.00;;;10.83;100.00
53960;BME280;39866;48.638;-2.020;2024-01-07T03:51:04;102035.84;;;10.88;100.00
53960;BME280;39866;48.638;-2.020;2024-01-07T03:53:29;102037.59;;;10.89;100.00
53960;BME280;39866;48.638;-2.020;2024-01-07T03:55:54;102031.47;;;10.81;100.00
53960;BME280;39866;48.638;-2.020;2024-01-07T03:58:20;102041.16;;;10.91;100.00
53960;BME280;39866;48.638;-2.020;2024-01-07T04:00:45;102041.22;;;10.81;100.00
53960;BME280;39866;48.638;-2.020;2024-01-07T04:03:11;102031.34;;;10.94;100.00
53960;BME280;39866;48.638;-2.020;2024-01-07T04:05:36;102044.81;;;10.80;100.00
53960;BME280;39866;48.638;-2.020;2024-01-07T04:08:03;102042.94;;;10.89;100.00
53960;BME280;39866;48.638;-2.020;2024-01-07T04:10:28;102046.59;;;10.79;100.00
53960;BME280;39866;48.638;-2.020;2024-01-07T04:12:53;102028.72;;;10.90;100.00
53960;BME280;39866;48.638;-2.020;2024-01-07T04:15:19;102030.59;;;10.79;100.00
53960;BME280;39866;48.638;-2.020;2024-01-07T04:17:45;102042.41;;;10.45;100.00
53960;BME280;39866;48.638;-2.020;2024-01-07T04:20:13;102039.69;;;10.52;100.00
53960;BME280;39866;48.638;-2.020;2024-01-07T04:22:38;102035.16;;;10.65;100.00
53960;BME280;39866;48.638;-2.020;2024-01-07T04:25:04;102043.25;;;10.51;100.00
53960;BME280;39866;48.638;-2.020;2024-01-07T04:27:36;102025.56;;;10.44;100.00
53960;BME280;39866;48.638;-2.020;2024-01-07T04:30:02;102035.13;;;10.70;100.00
53960;BME280;39866;48.638;-2.020;2024-01-07T04:32:27;102034.09;;;10.84;100.00
53960;BME280;39866;48.638;-2.020;2024-01-07T04:34:53;102035.78;;;10.96;100.00
53960;BME280;39866;48.638;-2.020;2024-01-07T04:37:18;102033.06;;;11.01;100.00
53960;BME280;39866;48.638;-2.020;2024-01-07T04:39:43;102037.66;;;10.85;100.00
53960;BME280;39866;48.638;-2.020;2024-01-07T04:42:09;102049.25;;;10.79;100.00
53960;BME280;39866;48.638;-2.020;2024-01-07T04:44:34;102051.94;;;10.76;100.00
53960;BME280;39866;48.638;-2.020;2024-01-07T04:47:00;102045.31;;;11.20;100.00
53960;BME280;39866;48.638;-2.020;2024-01-07T04:49:25;102053.59;;;10.89;100.00
53960;BME280;39866;48.638;-2.020;2024-01-07T04:51:50;102044.66;;;10.97;100.00
53960;BME280;39866;48.638;-2.020;2024-01-07T04:54:15;102042.78;;;11.08;100.00
53960;BME280;39866;48.638;-2.020;2024-01-07T04:56:41;102050.63;;;11.20;100.00
53960;BME280;39866;48.638;-2.020;2024-01-07T04:59:06;102055.06;;;11.21;100.00
53960;BME280;39866;48.638;-2.020;2024-01-07T05:01:34;102057.75;;;11.20;100.00
53960;BME280;39866;48.638;-2.020;2024-01-07T05:04:01;102065.97;;;10.97;100.00
53960;BME280;39866;48.638;-2.020;2024-01-07T05:06:26;102061.44;;;11.06;100.00
53960;BME280;39866;48.638;-2.020;2024-01-07T05:08:51;102064.44;;;10.65;100.00
53960;BME280;39866;48.638;-2.020;2024-01-07T05:11:16;102059.28;;;10.47;100.00
53960;BME280;39866;48.638;-2.020;2024-01-07T05:13:42;102055.81;;;10.34;100.00
53960;BME280;39866;48.638;-2.020;2024-01-07T05:16:07;102065.50;;;10.46;100.00
53960;BME280;39866;48.638;-2.020;2024-01-07T05:18:33;102060.19;;;10.43;100.00
53960;BME280;39866;48.638;-2.020;2024-01-07T05:20:58;102064.53;;;10.53;100.00
53960;BME280;39866;48.638;-2.020;2024-01-07T05:23:23;102060.22;;;10.36;100.00
53960;BME280;39866;48.638;-2.020;2024-01-07T05:25:49;102065.59;;;10.33;100.00
53960;BME280;39866;48.638;-2.020;2024-01-07T05:28:14;102058.41;;;10.46;100.00
53960;BME280;39866;48.638;-2.020;2024-01-07T05:30:44;102068.19;;;10.39;100.00
53960;BME280;39866;48.638;-2.020;2024-01-07T05:33:09;102066.41;;;10.43;100.00
53960;BME280;39866;48.638;-2.020;2024-01-07T05:35:35;102062.75;;;10.55;100.00
53960;BME280;39866;48.638;-2.020;2024-01-07T05:38:00;102059.19;;;10.56;100.00
53960;BME280;39866;48.638;-2.020;2024-01-07T05:40:26;102073.41;;;10.55;100.00
53960;BME280;39866;48.638;-2.020;2024-01-07T05:42:51;102071.69;;;10.49;100.00
53960;BME280;39866;48.638;-2.020;2024-01-07T05:45:16;102080.50;;;10.59;100.00
53960;BME280;39866;48.638;-2.020;2024-01-07T05:47:42;102077.03;;;10.45;100.00
53960;BME280;39866;48.638;-2.020;2024-01-07T05:50:07;102075.09;;;10.70;100.00
53960;BME280;39866;48.638;-2.020;2024-01-07T05:52:33;102079.72;;;10.43;100.00
53960;BME280;39866;48.638;-2.020;2024-01-07T05:54:58;102085.09;;;10.32;100.00
53960;BME280;39866;48.638;-2.020;2024-01-07T05:57:24;102073.56;;;10.33;100.00
53960;BME280;39866;48.638;-2.020;2024-01-07T05:59:49;102087.63;;;10.54;100.00
53960;BME280;39866;48.638;-2.020;2024-01-07T06:02:15;102092.13;;;10.46;100.00
53960;BME280;39866;48.638;-2.020;2024-01-07T06:04:42;102094.13;;;9.99;100.00
53960;BME280;39866;48.638;-2.020;2024-01-07T06:07:08;102102.13;;;9.96;100.00
53960;BME280;39866;48.638;-2.020;2024-01-07T06:09:33;102091.47;;;9.95;100.00
53960;BME280;39866;48.638;-2.020;2024-01-07T06:11:58;102098.44;;;10.20;100.00
53960;BME280;39866;48.638;-2.020;2024-01-07T06:14:24;102104.72;;;10.07;100.00
53960;BME280;39866;48.638;-2.020;2024-01-07T06:16:49;102117.53;;;10.93;100.00
53960;BME280;39866;48.638;-2.020;2024-01-07T06:19:18;102106.81;;;10.99;100.00
53960;BME280;39866;48.638;-2.020;2024-01-07T06:21:43;102111.13;;;11.13;100.00
53960;BME280;39866;48.638;-2.020;2024-01-07T06:24:09;102119.94;;;11.22;100.00
53960;BME280;39866;48.638;-2.020;2024-01-07T06:26:35;102120.09;;;11.03;100.00
53960;BME280;39866;48.638;-2.020;2024-01-07T06:29:01;102117.78;;;10.56;100.00
53960;BME280;39866;48.638;-2.020;2024-01-07T06:31:26;102127.69;;;10.34;100.00
53960;BME280;39866;48.638;-2.020;2024-01-07T06:33:52;102123.25;;;10.34;100.00
53960;BME280;39866;48.638;-2.020;2024-01-07T06:36:17;102122.41;;;10.29;100.00
53960;BME280;39866;48.638;-2.020;2024-01-07T06:38:43;102126.75;;;10.46;100.00
53960;BME280;39866;48.638;-2.020;2024-01-07T06:41:11;102127.66;;;10.41;100.00
53960;BME280;39866;48.638;-2.020;2024-01-07T06:43:38;102129.28;;;10.64;100.00
53960;BME280;39866;48.638;-2.020;2024-01-07T06:46:03;102130.16;;;10.64;100.00
53960;BME280;39866;48.638;-2.020;2024-01-07T06:48:29;102139.84;;;10.79;100.00
53960;BME280;39866;48.638;-2.020;2024-01-07T06:50:54;102137.25;;;10.70;100.00
53960;BME280;39866;48.638;-2.020;2024-01-07T06:53:20;102143.16;;;11.09;100.00
53960;BME280;39866;48.638;-2.020;2024-01-07T06:55:46;102146.97;;;10.76;100.00
53960;BME280;39866;48.638;-2.020;2024-01-07T06:58:11;102149.69;;;10.65;100.00
53960;BME280;39866;48.638;-2.020;2024-01-07T07:00:37;102156.69;;;10.80;100.00
53960;BME280;39866;48.638;-2.020;2024-01-07T07:03:02;102154.91;;;10.83;100.00
53960;BME280;39866;48.638;-2.020;2024-01-07T07:05:27;102154.84;;;10.94;100.00
53960;BME280;39866;48.638;-2.020;2024-01-07T07:07:53;102160.13;;;10.99;100.00
53960;BME280;39866;48.638;-2.020;2024-01-07T07:10:18;102162.06;;;10.78;100.00
53960;BME280;39866;48.638;-2.020;2024-01-07T07:12:44;102176.38;;;10.59;100.00
53960;BME280;39866;48.638;-2.020;2024-01-07T07:15:09;102167.59;;;10.41;100.00
53960;BME280;39866;48.638;-2.020;2024-01-07T07:17:38;102168.28;;;10.74;100.00
53960;BME280;39866;48.638;-2.020;2024-01-07T07:20:04;102169.31;;;10.50;100.00
53960;BME280;39866;48.638;-2.020;2024-01-07T07:22:30;102181.78;;;10.47;100.00
53960;BME280;39866;48.638;-2.020;2024-01-07T07:24:55;102175.50;;;10.55;100.00
53960;BME280;39866;48.638;-2.020;2024-01-07T07:27:21;102176.47;;;10.40;100.00
53960;BME280;39866;48.638;-2.020;2024-01-07T07:29:46;102189.84;;;10.30;100.00
53960;BME280;39866;48.638;-2.020;2024-01-07T07:32:12;102186.31;;;10.26;100.00
53960;BME280;39866;48.638;-2.020;2024-01-07T07:34:37;102175.69;;;10.25;100.00
53960;BME280;39866;48.638;-2.020;2024-01-07T07:37:03;102190.72;;;10.33;100.00
53960;BME280;39866;48.638;-2.020;2024-01-07T07:39:28;102194.25;;;10.34;100.00
53960;BME280;39866;48.638;-2.020;2024-01-07T07:41:53;102188.94;;;10.31;100.00
53960;BME280;39866;48.638;-2.020;2024-01-07T07:44:19;102203.06;;;10.50;100.00
53960;BME280;39866;48.638;-2.020;2024-01-07T07:46:44;102208.47;;;10.31;100.00
53960;BME280;39866;48.638;-2.020;2024-01-07T07:49:09;102213.81;;;10.17;100.00
53960;BME280;39866;48.638;-2.020;2024-01-07T07:51:36;102209.44;;;10.04;100.00
53960;BME280;39866;48.638;-2.020;2024-01-07T07:54:01;102211.13;;;10.31;100.00
53960;BME280;39866;48.638;-2.020;2024-01-07T07:56:28;102217.38;;;10.12;100.00
53960;BME280;39866;48.638;-2.020;2024-01-07T07:58:54;102214.66;;;10.23;100.00
53960;BME280;39866;48.638;-2.020;2024-01-07T08:01:19;102216.47;;;10.33;100.00
53960;BME280;39866;48.638;-2.020;2024-01-07T08:03:44;102224.44;;;10.34;100.00
53960;BME280;39866;48.638;-2.020;2024-01-07T08:06:10;102216.47;;;10.22;100.00
53960;BME280;39866;48.638;-2.020;2024-01-07T08:08:35;102230.63;;;10.38;100.00
53960;BME280;39866;48.638;-2.020;2024-01-07T08:11:00;102227.91;;;10.50;100.00
53960;BME280;39866;48.638;-2.020;2024-01-07T08:13:25;102235.94;;;10.43;100.00
53960;BME280;39866;48.638;-2.020;2024-01-07T08:15:51;102231.50;;;10.41;100.00
53960;BME280;39866;48.638;-2.020;2024-01-07T08:18:16;102232.38;;;10.44;100.00
53960;BME280;39866;48.638;-2.020;2024-01-07T08:20:42;102234.97;;;10.59;100.00
53960;BME280;39866;48.638;-2.020;2024-01-07T08:23:08;102246.66;;;10.29;100.00
53960;BME280;39866;48.638;-2.020;2024-01-07T08:25:33;102241.25;;;10.39;100.00
53960;BME280;39866;48.638;-2.020;2024-01-07T08:27:58;102243.06;;;10.34;100.00
53960;BME280;39866;48.638;-2.020;2024-01-07T08:30:24;102242.19;;;10.23;100.00
53960;BME280;39866;48.638;-2.020;2024-01-07T08:32:50;102243.00;;;10.48;100.00
53960;BME280;39866;48.638;-2.020;2024-01-07T08:35:15;102253.72;;;10.30;100.00
53960;BME280;39866;48.638;-2.020;2024-01-07T08:37:40;102249.28;;;10.30;100.00
53960;BME280;39866;48.638;-2.020;2024-01-07T08:40:06;102248.47;;;9.98;100.00
53960;BME280;39866;48.638;-2.020;2024-01-07T08:42:35;102255.47;;;10.20;100.00
53960;BME280;39866;48.638;-2.020;2024-01-07T08:45:00;102253.75;;;10.21;100.00
53960;BME280;39866;48.638;-2.020;2024-01-07T08:47:26;102258.19;;;10.26;100.00
53960;BME280;39866;48.638;-2.020;2024-01-07T08:49:51;102260.81;;;10.38;100.00
53960;BME280;39866;48.638;-2.020;2024-01-07T08:52:19;102272.34;;;10.16;100.00
53960;BME280;39866;48.638;-2.020;2024-01-07T08:54:44;102267.97;;;10.01;100.00
53960;BME280;39866;48.638;-2.020;2024-01-07T08:57:10;102283.88;;;10.24;100.00
53960;BME280;39866;48.638;-2.020;2024-01-07T08:59:35;102275.03;;;10.07;100.00
53960;BME280;39866;48.638;-2.020;2024-01-07T09:02:00;102275.09;;;9.96;100.00
53960;BME280;39866;48.638;-2.020;2024-01-07T09:04:25;102282.09;;;10.23;100.00
53960;BME280;39866;48.638;-2.020;2024-01-07T09:06:51;102278.59;;;10.29;100.00
53960;BME280;39866;48.638;-2.020;2024-01-07T09:09:16;102277.72;;;10.10;100.00
53960;BME280;39866;48.638;-2.020;2024-01-07T09:11:41;102279.50;;;9.99;100.00
53960;BME280;39866;48.638;-2.020;2024-01-07T09:14:07;102275.91;;;10.33;100.00
53960;BME280;39866;48.638;-2.020;2024-01-07T09:16:33;102286.53;;;10.41;100.00
53960;BME280;39866;48.638;-2.020;2024-01-07T09:18:58;102286.50;;;10.47;100.00
53960;BME280;39866;48.638;-2.020;2024-01-07T09:21:24;102295.41;;;10.38;100.00
53960;BME280;39866;48.638;-2.020;2024-01-07T09:23:49;102291.88;;;10.15;100.00
53960;BME280;39866;48.638;-2.020;2024-01-07T09:26:14;102296.31;;;10.11;100.00
53960;BME280;39866;48.638;-2.020;2024-01-07T09:28:40;102307.00;;;10.25;100.00
53960;BME280;39866;48.638;-2.020;2024-01-07T09:31:06;102311.44;;;9.99;100.00
53960;BME280;39866;48.638;-2.020;2024-01-07T09:33:32;102314.06;;;10.35;100.00
53960;BME280;39866;48.638;-2.020;2024-01-07T09:35:57;102314.94;;;10.24;100.00
53960;BME280;39866;48.638;-2.020;2024-01-07T09:38:22;102309.63;;;10.07;100.00
53960;BME280;39866;48.638;-2.020;2024-01-07T09:40:50;102310.53;;;10.29;100.00
53960;BME280;39866;48.638;-2.020;2024-01-07T09:43:16;102312.16;;;10.71;100.00
53960;BME280;39866;48.638;-2.020;2024-01-07T09:45:42;102312.28;;;10.34;100.00
53960;BME280;39866;48.638;-2.020;2024-01-07T09:48:10;102315.81;;;10.36;100.00
53960;BME280;39866;48.638;-2.020;2024-01-07T09:50:36;102320.25;;;10.36;100.00
53960;BME280;39866;48.638;-2.020;2024-01-07T09:53:02;102314.94;;;10.39;100.00
53960;BME280;39866;48.638;-2.020;2024-01-07T09:55:35;102316.69;;;10.45;100.00
53960;BME280;39866;48.638;-2.020;2024-01-07T09:58:03;102318.53;;;10.09;100.00
53960;BME280;39866;48.638;-2.020;2024-01-07T10:00:28;102315.84;;;10.03;100.00
53960;BME280;39866;48.638;-2.020;2024-01-07T10:02:54;102330.94;;;10.34;100.00
53960;BME280;39866;48.638;-2.020;2024-01-07T10:05:20;102334.44;;;10.47;100.00
53960;BME280;39866;48.638;-2.020;2024-01-07T10:07:45;102335.34;;;10.40;100.00
53960;BME280;39866;48.638;-2.020;2024-01-07T10:10:19;102353.97;;;10.48;100.00
53960;BME280;39866;48.638;-2.020;2024-01-07T10:12:45;102337.97;;;10.54;100.00
53960;BME280;39866;48.638;-2.020;2024-01-07T10:15:14;102338.00;;;10.43;100.00
53960;BME280;39866;48.638;-2.020;2024-01-07T10:17:42;102349.50;;;10.54;100.00
53960;BME280;39866;48.638;-2.020;2024-01-07T10:20:08;102348.66;;;10.20;100.00
53960;BME280;39866;48.638;-2.020;2024-01-07T10:22:38;102352.22;;;10.17;100.00
53960;BME280;39866;48.638;-2.020;2024-01-07T10:25:04;102361.09;;;10.39;100.00
53960;BME280;39866;48.638;-2.020;2024-01-07T10:27:29;102353.09;;;10.07;100.00
53960;BME280;39866;48.638;-2.020;2024-01-07T10:29:58;102350.44;;;10.35;100.00
53960;BME280;39866;48.638;-2.020;2024-01-07T10:32:23;102352.25;;;10.33;100.00
53960;BME280;39866;48.638;-2.020;2024-01-07T10:34:50;102355.78;;;10.27;100.00
53960;BME280;39866;48.638;-2.020;2024-01-07T10:37:20;102357.56;;;10.08;100.00
53960;BME280;39866;48.638;-2.020;2024-01-07T10:39:48;102356.66;;;10.17;100.00
53960;BME280;39866;48.638;-2.020;2024-01-07T10:42:15;102364.66;;;10.14;100.00
53960;BME280;39866;48.638;-2.020;2024-01-07T10:44:41;102349.59;;;9.96;100.00
53960;BME280;39866;48.638;-2.020;2024-01-07T10:47:07;102348.69;;;10.26;100.00
53960;BME280;39866;48.638;-2.020;2024-01-07T10:49:36;102353.09;;;10.15;100.00
53960;BME280;39866;48.638;-2.020;2024-01-07T10:52:06;102349.56;;;10.34;100.00
53960;BME280;39866;48.638;-2.020;2024-01-07T10:54:34;102347.81;;;10.09;100.00
53960;BME280;39866;48.638;-2.020;2024-01-07T10:57:07;102352.22;;;10.07;100.00
53960;BME280;39866;48.638;-2.020;2024-01-07T10:59:36;102346.03;;;10.09;100.00
53960;BME280;39866;48.638;-2.020;2024-01-07T11:02:01;102342.47;;;9.93;100.00
53960;BME280;39866;48.638;-2.020;2024-01-07T11:04:43;102346.91;;;9.73;100.00
53960;BME280;39866;48.638;-2.020;2024-01-07T11:10:00;102344.25;;;9.87;100.00
53960;BME280;39866;48.638;-2.020;2024-01-07T11:12:29;102344.22;;;10.14;100.00
53960;BME280;39866;48.638;-2.020;2024-01-07T11:14:55;102349.53;;;10.24;100.00
53960;BME280;39866;48.638;-2.020;2024-01-07T11:17:42;102348.69;;;9.99;100.00
53960;BME280;39866;48.638;-2.020;2024-01-07T11:20:16;102353.13;;;10.27;100.00
53960;BME280;39866;48.638;-2.020;2024-01-07T11:22:42;102357.56;;;9.85;100.00
53960;BME280;39866;48.638;-2.020;2024-01-07T11:25:33;102364.66;;;9.74;100.00
53960;BME280;39866;48.638;-2.020;2024-01-07T11:28:01;102357.56;;;10.25;100.00
53960;BME280;39866;48.638;-2.020;2024-01-07T11:30:27;102358.47;;;10.26;100.00
53960;BME280;39866;48.638;-2.020;2024-01-07T11:33:00;102358.44;;;10.00;100.00
53960;BME280;39866;48.638;-2.020;2024-01-07T11:35:54;102358.47;;;9.92;100.00
53960;BME280;39866;48.638;-2.020;2024-01-07T11:38:19;102353.13;;;10.16;100.00
53960;BME280;39866;48.638;-2.020;2024-01-07T11:40:46;102350.47;;;10.06;100.00
53960;BME280;39866;48.638;-2.020;2024-01-07T11:43:12;102354.00;;;10.31;100.00
53960;BME280;39866;48.638;-2.020;2024-01-07T11:45:37;102353.13;;;10.33;100.00
53960;BME280;39866;48.638;-2.020;2024-01-07T11:48:04;102352.25;;;10.08;100.00
53960;BME280;39866;48.638;-2.020;2024-01-07T11:50:30;102359.34;;;9.68;100.00
53960;BME280;39866;48.638;-2.020;2024-01-07T11:52:55;102357.53;;;9.49;100.00
53960;BME280;39866;48.638;-2.020;2024-01-07T11:55:21;102354.03;;;10.00;100.00
53960;BME280;39866;48.638;-2.020;2024-01-07T11:57:46;102352.25;;;9.59;100.00
53960;BME280;39866;48.638;-2.020;2024-01-07T12:00:12;102351.34;;;9.85;100.00
53960;BME280;39866;48.638;-2.020;2024-01-07T12:02:38;102350.44;;;10.15;100.00
53960;BME280;39866;48.638;-2.020;2024-01-07T12:05:04;102347.78;;;10.00;100.00
53960;BME280;39866;48.638;-2.020;2024-01-07T12:07:29;102344.25;;;9.98;100.00
53960;BME280;39866;48.638;-2.020;2024-01-07T12:09:58;102345.09;;;10.23;100.00
53960;BME280;39866;48.638;-2.020;2024-01-07T12:12:24;102338.06;;;9.80;100.00
53960;BME280;39866;48.638;-2.020;2024-01-07T12:14:50;102345.13;;;10.06;100.00
53960;BME280;39866;48.638;-2.020;2024-01-07T12:17:18;102322.09;;;9.94;100.00
53960;BME280;39866;48.638;-2.020;2024-01-07T12:19:43;102334.50;;;9.78;100.00
53960;BME280;39866;48.638;-2.020;2024-01-07T12:22:09;102340.69;;;9.53;100.00
53960;BME280;39866;48.638;-2.020;2024-01-07T12:24:34;102331.84;;;9.48;100.00
53960;BME280;39866;48.638;-2.020;2024-01-07T12:27:06;102325.59;;;9.36;100.00